sensor_id;sensor_type;location;lat;lon;timestamp;temperature;humidity
51783;DHT22;37845;53.196;5.638;2022-09-02T00:01:40;16.70;99.90
51783;DHT22;37845;53.196;5.638;2022-09-02T00:04:16;16.70;99.90
51783;DHT22;37845;53.196;5.638;2022-09-02T00:06:43;16.70;99.90
51783;DHT22;37845;53.196;5.638;2022-09-02T00:09:09;16.70;99.90
51783;DHT22;37845;53.196;5.638;2022-09-02T00:11:36;16.70;99.90
51783;DHT22;37845;53.196;5.638;2022-09-02T00:14:03;16.70;99.90
51783;DHT22;37845;53.196;5.638;2022-09-02T00:16:29;16.70;99.90
51783;DHT22;37845;53.196;5.638;2022-09-02T00:18:56;16.70;99.90
51783;DHT22;37845;53.196;5.638;2022-09-02T00:21:22;16.60;99.90
51783;DHT22;37845;53.196;5.638;2022-09-02T00:23:48;16.60;99.90
51783;DHT22;37845;53.196;5.638;2022-09-02T00:26:14;16.60;99.90
51783;DHT22;37845;53.196;5.638;2022-09-02T00:28:40;16.60;99.90
51783;DHT22;37845;53.196;5.638;2022-09-02T00:31:06;16.60;99.90
51783;DHT22;37845;53.196;5.638;2022-09-02T00:33:32;16.60;99.90
51783;DHT22;37845;53.196;5.638;2022-09-02T00:36:02;16.50;99.90
51783;DHT22;37845;53.196;5.638;2022-09-02T00:38:28;16.50;99.90
51783;DHT22;37845;53.196;5.638;2022-09-02T00:40:55;16.40;99.90
51783;DHT22;37845;53.196;5.638;2022-09-02T00:43:22;16.40;99.90
51783;DHT22;37845;53.196;5.638;2022-09-02T00:45:47;16.40;99.90
51783;DHT22;37845;53.196;5.638;2022-09-02T00:48:16;16.30;99.90
51783;DHT22;37845;53.196;5.638;2022-09-02T00:50:42;16.30;99.90
51783;DHT22;37845;53.196;5.638;2022-09-02T00:53:10;16.30;99.90
51783;DHT22;37845;53.196;5.638;2022-09-02T00:55:42;16.20;99.90
51783;DHT22;37845;53.196;5.638;2022-09-02T00:58:14;16.20;99.90
51783;DHT22;37845;53.196;5.638;2022-09-02T01:00:40;16.20;99.90
51783;DHT22;37845;53.196;5.638;2022-09-02T01:03:08;16.20;99.90
51783;DHT22;37845;53.196;5.638;2022-09-02T01:05:36;16.20;99.90
51783;DHT22;37845;53.196;5.638;2022-09-02T01:08:03;16.20;99.90
51783;DHT22;37845;53.196;5.638;2022-09-02T01:10:31;16.10;99.90
51783;DHT22;37845;53.196;5.638;2022-09-02T01:13:00;16.10;99.90
51783;DHT22;37845;53.196;5.638;2022-09-02T01:15:26;16.10;99.90
51783;DHT22;37845;53.196;5.638;2022-09-02T01:17:52;16.10;99.90
51783;DHT22;37845;53.196;5.638;2022-09-02T01:20:20;16.10;99.90
51783;DHT22;37845;53.196;5.638;2022-09-02T01:22:46;16.00;99.90
51783;DHT22;37845;53.196;5.638;2022-09-02T01:25:16;16.00;99.90
51783;DHT22;37845;53.196;5.638;2022-09-02T01:27:42;16.00;99.90
51783;DHT22;37845;53.196;5.638;2022-09-02T01:30:10;15.90;99.90
51783;DHT22;37845;53.196;5.638;2022-09-02T01:32:35;15.90;99.90
51783;DHT22;37845;53.196;5.638;2022-09-02T01:35:02;15.90;99.90
51783;DHT22;37845;53.196;5.638;2022-09-02T01:37:28;15.80;99.90
51783;DHT22;37845;53.196;5.638;2022-09-02T01:39:53;15.80;99.90
51783;DHT22;37845;53.196;5.638;2022-09-02T01:42:21;15.80;99.90
51783;DHT22;37845;53.196;5.638;2022-09-02T01:44:47;15.70;99.90
51783;DHT22;37845;53.196;5.638;2022-09-02T01:47:13;15.80;99.90
51783;DHT22;37845;53.196;5.638;2022-09-02T01:49:40;15.70;99.90
51783;DHT22;37845;53.196;5.638;2022-09-02T01:52:06;15.70;99.90
51783;DHT22;37845;53.196;5.638;2022-09-02T01:54:32;15.70;99.90
51783;DHT22;37845;53.196;5.638;2022-09-02T01:56:59;15.70;99.90
51783;DHT22;37845;53.196;5.638;2022-09-02T01:59:24;15.70;99.90
51783;DHT22;37845;53.196;5.638;2022-09-02T02:01:50;15.60;99.90
51783;DHT22;37845;53.196;5.638;2022-09-02T02:04:16;15.60;99.90
51783;DHT22;37845;53.196;5.638;2022-09-02T02:06:42;15.70;99.90
51783;DHT22;37845;53.196;5.638;2022-09-02T02:09:09;15.70;99.90
51783;DHT22;37845;53.196;5.638;2022-09-02T02:11:35;15.60;99.90
51783;DHT22;37845;53.196;5.638;2022-09-02T02:14:00;15.60;99.90
51783;DHT22;37845;53.196;5.638;2022-09-02T02:16:31;15.60;99.90
51783;DHT22;37845;53.196;5.638;2022-09-02T02:18:57;15.50;99.90
51783;DHT22;37845;53.196;5.638;2022-09-02T02:21:23;15.50;99.90
51783;DHT22;37845;53.196;5.638;2022-09-02T02:23:48;15.40;99.90
51783;DHT22;37845;53.196;5.638;2022-09-02T02:26:14;15.50;99.90
51783;DHT22;37845;53.196;5.638;2022-09-02T02:28:40;15.50;99.90
51783;DHT22;37845;53.196;5.638;2022-09-02T02:31:05;15.40;99.90
51783;DHT22;37845;53.196;5.638;2022-09-02T02:33:31;15.40;99.90
51783;DHT22;37845;53.196;5.638;2022-09-02T02:35:57;15.30;99.90
51783;DHT22;37845;53.196;5.638;2022-09-02T02:38:22;15.40;99.90
51783;DHT22;37845;53.196;5.638;2022-09-02T02:40:48;15.30;99.90
51783;DHT22;37845;53.196;5.638;2022-09-02T02:43:14;15.30;99.90
51783;DHT22;37845;53.196;5.638;2022-09-02T02:45:40;15.30;99.90
51783;DHT22;37845;53.196;5.638;2022-09-02T02:48:05;15.30;99.90
51783;DHT22;37845;53.196;5.638;2022-09-02T02:50:31;15.30;99.90
51783;DHT22;37845;53.196;5.638;2022-09-02T02:52:56;15.30;99.90
51783;DHT22;37845;53.196;5.638;2022-09-02T02:55:24;15.30;99.90
51783;DHT22;37845;53.196;5.638;2022-09-02T02:57:50;15.30;99.90
51783;DHT22;37845;53.196;5.638;2022-09-02T03:00:25;15.30;99.90
51783;DHT22;37845;53.196;5.638;2022-09-02T03:02:56;15.20;99.90
51783;DHT22;37845;53.196;5.638;2022-09-02T03:05:22;15.20;99.90
51783;DHT22;37845;53.196;5.638;2022-09-02T03:07:48;15.20;99.90
51783;DHT22;37845;53.196;5.638;2022-09-02T03:10:14;15.10;99.90
51783;DHT22;37845;53.196;5.638;2022-09-02T03:12:40;15.10;99.90
51783;DHT22;37845;53.196;5.638;2022-09-02T03:15:06;15.10;99.90
51783;DHT22;37845;53.196;5.638;2022-09-02T03:17:32;15.10;99.90
51783;DHT22;37845;53.196;5.638;2022-09-02T03:19:58;15.10;99.90
51783;DHT22;37845;53.196;5.638;2022-09-02T03:22:24;15.10;99.90
51783;DHT22;37845;53.196;5.638;2022-09-02T03:24:50;15.10;99.90
51783;DHT22;37845;53.196;5.638;2022-09-02T03:27:16;15.10;99.90
51783;DHT22;37845;53.196;5.638;2022-09-02T03:29:41;15.10;99.90
51783;DHT22;37845;53.196;5.638;2022-09-02T03:32:08;15.10;99.90
51783;DHT22;37845;53.196;5.638;2022-09-02T03:34:34;15.00;99.90
51783;DHT22;37845;53.196;5.638;2022-09-02T03:37:00;15.00;99.90
51783;DHT22;37845;53.196;5.638;2022-09-02T03:39:25;15.00;99.90
51783;DHT22;37845;53.196;5.638;2022-09-02T03:41:51;15.00;99.90
51783;DHT22;37845;53.196;5.638;2022-09-02T03:44:17;15.00;99.90
51783;DHT22;37845;53.196;5.638;2022-09-02T03:46:42;15.00;99.90
51783;DHT22;37845;53.196;5.638;2022-09-02T03:49:08;15.00;99.90
51783;DHT22;37845;53.196;5.638;2022-09-02T03:51:33;15.00;99.90
51783;DHT22;37845;53.196;5.638;2022-09-02T03:53:59;15.00;99.90
51783;DHT22;37845;53.196;5.638;2022-09-02T03:56:28;15.00;99.90
51783;DHT22;37845;53.196;5.638;2022-09-02T03:58:53;15.00;99.90
51783;DHT22;37845;53.196;5.638;2022-09-02T04:01:22;14.90;99.90
51783;DHT22;37845;53.196;5.638;2022-09-02T04:03:48;14.90;99.90
51783;DHT22;37845;53.196;5.638;2022-09-02T04:06:14;14.90;99.90
51783;DHT22;37845;53.196;5.638;2022-09-02T04:08:40;14.90;99.90
51783;DHT22;37845;53.196;5.638;2022-09-02T04:11:10;14.80;99.90
51783;DHT22;37845;53.196;5.638;2022-09-02T04:13:37;14.80;99.90
51783;DHT22;37845;53.196;5.638;2022-09-02T04:16:10;14.80;99.90
51783;DHT22;37845;53.196;5.638;2022-09-02T04:18:36;14.90;99.90
51783;DHT22;37845;53.196;5.638;2022-09-02T04:21:02;14.80;99.90
51783;DHT22;37845;53.196;5.638;2022-09-02T04:23:28;14.80;99.90
51783;DHT22;37845;53.196;5.638;2022-09-02T04:25:53;14.80;99.90
51783;DHT22;37845;53.196;5.638;2022-09-02T04:28:19;14.80;99.90
51783;DHT22;37845;53.196;5.638;2022-09-02T04:30:45;14.70;99.90
51783;DHT22;37845;53.196;5.638;2022-09-02T04:33:11;14.70;99.90
51783;DHT22;37845;53.196;5.638;2022-09-02T04:35:41;14.70;99.90
51783;DHT22;37845;53.196;5.638;2022-09-02T04:38:07;14.60;99.90
51783;DHT22;37845;53.196;5.638;2022-09-02T04:40:33;14.60;99.90
51783;DHT22;37845;53.196;5.638;2022-09-02T04:42:58;14.60;99.90
51783;DHT22;37845;53.196;5.638;2022-09-02T04:45:24;14.60;99.90
51783;DHT22;37845;53.196;5.638;2022-09-02T04:47:50;14.60;99.90
51783;DHT22;37845;53.196;5.638;2022-09-02T04:50:15;14.60;99.90
51783;DHT22;37845;53.196;5.638;2022-09-02T04:52:41;14.60;99.90
51783;DHT22;37845;53.196;5.638;2022-09-02T04:55:06;14.50;99.90
51783;DHT22;37845;53.196;5.638;2022-09-02T04:57:33;14.60;99.90
51783;DHT22;37845;53.196;5.638;2022-09-02T04:59:59;14.50;99.90
51783;DHT22;37845;53.196;5.638;2022-09-02T05:02:26;14.50;99.90
51783;DHT22;37845;53.196;5.638;2022-09-02T05:04:51;14.50;99.90
51783;DHT22;37845;53.196;5.638;2022-09-02T05:07:17;14.40;99.90
51783;DHT22;37845;53.196;5.638;2022-09-02T05:09:42;14.40;99.90
51783;DHT22;37845;53.196;5.638;2022-09-02T05:12:08;14.40;99.90
51783;DHT22;37845;53.196;5.638;2022-09-02T05:14:34;14.40;99.90
51783;DHT22;37845;53.196;5.638;2022-09-02T05:17:00;14.40;99.90
51783;DHT22;37845;53.196;5.638;2022-09-02T05:19:26;14.40;99.90
51783;DHT22;37845;53.196;5.638;2022-09-02T05:21:52;14.40;99.90
51783;DHT22;37845;53.196;5.638;2022-09-02T05:24:19;14.40;99.90
51783;DHT22;37845;53.196;5.638;2022-09-02T05:26:45;14.40;99.90
51783;DHT22;37845;53.196;5.638;2022-09-02T05:29:11;14.40;99.90
51783;DHT22;37845;53.196;5.638;2022-09-02T05:31:37;14.40;99.90
51783;DHT22;37845;53.196;5.638;2022-09-02T05:34:04;14.40;99.90
51783;DHT22;37845;53.196;5.638;2022-09-02T05:36:30;14.50;99.90
51783;DHT22;37845;53.196;5.638;2022-09-02T05:38:57;14.50;99.90
51783;DHT22;37845;53.196;5.638;2022-09-02T05:41:23;14.50;99.90
51783;DHT22;37845;53.196;5.638;2022-09-02T05:43:50;14.50;99.90
51783;DHT22;37845;53.196;5.638;2022-09-02T05:46:17;14.50;99.90
51783;DHT22;37845;53.196;5.638;2022-09-02T05:48:43;14.60;99.90
51783;DHT22;37845;53.196;5.638;2022-09-02T05:51:28;14.60;99.90
51783;DHT22;37845;53.196;5.638;2022-09-02T05:53:55;14.70;99.90
51783;DHT22;37845;53.196;5.638;2022-09-02T05:56:21;14.70;99.90
51783;DHT22;37845;53.196;5.638;2022-09-02T05:58:47;14.80;99.90
51783;DHT22;37845;53.196;5.638;2022-09-02T06:01:13;14.90;99.90
51783;DHT22;37845;53.196;5.638;2022-09-02T06:03:39;14.90;99.90
51783;DHT22;37845;53.196;5.638;2022-09-02T06:06:05;14.90;99.90
51783;DHT22;37845;53.196;5.638;2022-09-02T06:08:31;15.00;99.90
51783;DHT22;37845;53.196;5.638;2022-09-02T06:10:57;15.00;99.90
51783;DHT22;37845;53.196;5.638;2022-09-02T06:13:23;15.10;99.90
51783;DHT22;37845;53.196;5.638;2022-09-02T06:15:49;15.10;99.90
51783;DHT22;37845;53.196;5.638;2022-09-02T06:18:15;15.10;99.90
51783;DHT22;37845;53.196;5.638;2022-09-02T06:20:44;15.20;99.90
51783;DHT22;37845;53.196;5.638;2022-09-02T06:23:10;15.20;99.90
51783;DHT22;37845;53.196;5.638;2022-09-02T06:25:36;15.20;99.90
51783;DHT22;37845;53.196;5.638;2022-09-02T06:28:02;15.30;99.90
51783;DHT22;37845;53.196;5.638;2022-09-02T06:30:28;15.40;99.90
51783;DHT22;37845;53.196;5.638;2022-09-02T06:32:57;15.40;99.90
51783;DHT22;37845;53.196;5.638;2022-09-02T06:35:23;15.90;99.90
51783;DHT22;37845;53.196;5.638;2022-09-02T06:37:48;15.50;99.90
51783;DHT22;37845;53.196;5.638;2022-09-02T06:40:20;15.60;99.90
51783;DHT22;37845;53.196;5.638;2022-09-02T06:42:46;15.60;99.90
51783;DHT22;37845;53.196;5.638;2022-09-02T06:45:14;15.70;99.90
51783;DHT22;37845;53.196;5.638;2022-09-02T06:47:39;15.80;99.90
51783;DHT22;37845;53.196;5.638;2022-09-02T06:50:05;15.90;99.90
51783;DHT22;37845;53.196;5.638;2022-09-02T06:52:31;15.90;99.90
51783;DHT22;37845;53.196;5.638;2022-09-02T06:54:56;16.00;99.90
51783;DHT22;37845;53.196;5.638;2022-09-02T06:57:22;16.10;99.90
51783;DHT22;37845;53.196;5.638;2022-09-02T06:59:54;16.10;99.90
51783;DHT22;37845;53.196;5.638;2022-09-02T07:02:19;16.20;99.90
51783;DHT22;37845;53.196;5.638;2022-09-02T07:04:45;16.20;99.90
51783;DHT22;37845;53.196;5.638;2022-09-02T07:07:29;16.20;99.90
51783;DHT22;37845;53.196;5.638;2022-09-02T07:09:55;16.30;99.90
51783;DHT22;37845;53.196;5.638;2022-09-02T07:12:21;16.40;99.90
51783;DHT22;37845;53.196;5.638;2022-09-02T07:14:46;16.50;99.90
51783;DHT22;37845;53.196;5.638;2022-09-02T07:17:13;16.50;99.90
51783;DHT22;37845;53.196;5.638;2022-09-02T07:19:42;16.60;99.90
51783;DHT22;37845;53.196;5.638;2022-09-02T07:22:08;16.70;99.90
51783;DHT22;37845;53.196;5.638;2022-09-02T07:24:33;16.70;99.90
51783;DHT22;37845;53.196;5.638;2022-09-02T07:26:59;16.80;99.90
51783;DHT22;37845;53.196;5.638;2022-09-02T07:29:24;16.90;99.90
51783;DHT22;37845;53.196;5.638;2022-09-02T07:31:50;16.90;99.90
51783;DHT22;37845;53.196;5.638;2022-09-02T07:34:16;17.00;99.90
51783;DHT22;37845;53.196;5.638;2022-09-02T07:36:42;17.10;99.90
51783;DHT22;37845;53.196;5.638;2022-09-02T07:39:10;17.20;99.90
51783;DHT22;37845;53.196;5.638;2022-09-02T07:41:36;17.20;99.90
51783;DHT22;37845;53.196;5.638;2022-09-02T07:44:02;17.30;99.90
51783;DHT22;37845;53.196;5.638;2022-09-02T07:46:28;17.40;99.90
51783;DHT22;37845;53.196;5.638;2022-09-02T07:48:56;17.40;99.90
51783;DHT22;37845;53.196;5.638;2022-09-02T07:51:22;17.60;99.90
51783;DHT22;37845;53.196;5.638;2022-09-02T07:53:47;17.60;99.90
51783;DHT22;37845;53.196;5.638;2022-09-02T07:56:19;17.60;99.90
51783;DHT22;37845;53.196;5.638;2022-09-02T07:58:44;17.70;99.90
51783;DHT22;37845;53.196;5.638;2022-09-02T08:01:11;17.80;99.90
51783;DHT22;37845;53.196;5.638;2022-09-02T08:03:37;17.80;99.90
51783;DHT22;37845;53.196;5.638;2022-09-02T08:06:04;17.90;99.90
51783;DHT22;37845;53.196;5.638;2022-09-02T08:08:30;18.00;99.90
51783;DHT22;37845;53.196;5.638;2022-09-02T08:10:56;18.00;99.90
51783;DHT22;37845;53.196;5.638;2022-09-02T08:13:22;18.10;99.90
51783;DHT22;37845;53.196;5.638;2022-09-02T08:15:48;18.20;99.90
51783;DHT22;37845;53.196;5.638;2022-09-02T08:18:17;18.30;99.90
51783;DHT22;37845;53.196;5.638;2022-09-02T08:20:43;18.30;99.90
51783;DHT22;37845;53.196;5.638;2022-09-02T08:23:08;18.40;99.90
51783;DHT22;37845;53.196;5.638;2022-09-02T08:25:38;18.50;99.90
51783;DHT22;37845;53.196;5.638;2022-09-02T08:28:05;18.60;99.90
51783;DHT22;37845;53.196;5.638;2022-09-02T08:30:31;18.70;99.90
51783;DHT22;37845;53.196;5.638;2022-09-02T08:32:56;18.70;99.90
51783;DHT22;37845;53.196;5.638;2022-09-02T08:35:22;18.80;99.90
51783;DHT22;37845;53.196;5.638;2022-09-02T08:37:48;18.80;99.90
51783;DHT22;37845;53.196;5.638;2022-09-02T08:40:21;18.90;99.90
51783;DHT22;37845;53.196;5.638;2022-09-02T08:42:48;19.00;99.90
51783;DHT22;37845;53.196;5.638;2022-09-02T08:45:29;19.00;99.90
51783;DHT22;37845;53.196;5.638;2022-09-02T08:50:32;19.20;99.90
51783;DHT22;37845;53.196;5.638;2022-09-02T08:53:06;19.20;99.90
51783;DHT22;37845;53.196;5.638;2022-09-02T08:55:39;19.30;99.90
51783;DHT22;37845;53.196;5.638;2022-09-02T08:58:07;19.40;99.90
51783;DHT22;37845;53.196;5.638;2022-09-02T09:00:34;19.50;99.90
51783;DHT22;37845;53.196;5.638;2022-09-02T09:03:20;19.50;99.90
51783;DHT22;37845;53.196;5.638;2022-09-02T09:05:52;19.60;99.90
51783;DHT22;37845;53.196;5.638;2022-09-02T09:11:00;19.80;99.90
51783;DHT22;37845;53.196;5.638;2022-09-02T09:15:54;19.90;99.90
51783;DHT22;37845;53.196;5.638;2022-09-02T09:18:27;20.00;99.90
51783;DHT22;37845;53.196;5.638;2022-09-02T09:20:54;20.10;99.90
51783;DHT22;37845;53.196;5.638;2022-09-02T09:23:22;20.20;99.90
51783;DHT22;37845;53.196;5.638;2022-09-02T09:25:49;20.30;99.90
51783;DHT22;37845;53.196;5.638;2022-09-02T09:28:17;20.40;99.90
51783;DHT22;37845;53.196;5.638;2022-09-02T09:30:43;20.40;99.90
51783;DHT22;37845;53.196;5.638;2022-09-02T09:33:08;20.50;99.90
51783;DHT22;37845;53.196;5.638;2022-09-02T09:35:48;20.60;99.90
51783;DHT22;37845;53.196;5.638;2022-09-02T09:38:15;20.60;99.90
51783;DHT22;37845;53.196;5.638;2022-09-02T09:40:40;20.80;99.90
51783;DHT22;37845;53.196;5.638;2022-09-02T09:50:31;21.00;99.40
51783;DHT22;37845;53.196;5.638;2022-09-02T09:56:03;21.10;98.90
51783;DHT22;37845;53.196;5.638;2022-09-02T10:03:36;21.30;98.60
51783;DHT22;37845;53.196;5.638;2022-09-02T10:08:51;21.50;97.80
51783;DHT22;37845;53.196;5.638;2022-09-02T10:11:22;21.60;98.00
51783;DHT22;37845;53.196;5.638;2022-09-02T10:13:48;21.60;97.60
51783;DHT22;37845;53.196;5.638;2022-09-02T10:16:20;21.70;97.30
51783;DHT22;37845;53.196;5.638;2022-09-02T10:19:07;21.80;96.90
51783;DHT22;37845;53.196;5.638;2022-09-02T10:26:36;21.80;96.20
51783;DHT22;37845;53.196;5.638;2022-09-02T10:31:46;21.90;96.60
51783;DHT22;37845;53.196;5.638;2022-09-02T10:41:50;22.00;96.60
51783;DHT22;37845;53.196;5.638;2022-09-02T10:44:29;22.10;95.70
51783;DHT22;37845;53.196;5.638;2022-09-02T10:54:58;22.40;95.90
51783;DHT22;37845;53.196;5.638;2022-09-02T10:57:29;22.50;95.20
51783;DHT22;37845;53.196;5.638;2022-09-02T11:04:58;22.70;93.80
51783;DHT22;37845;53.196;5.638;2022-09-02T11:07:26;22.80;93.90
51783;DHT22;37845;53.196;5.638;2022-09-02T11:09:56;22.80;94.20
51783;DHT22;37845;53.196;5.638;2022-09-02T11:12:31;22.90;93.10
51783;DHT22;37845;53.196;5.638;2022-09-02T11:15:14;23.00;93.30
51783;DHT22;37845;53.196;5.638;2022-09-02T11:20:10;23.10;92.40
51783;DHT22;37845;53.196;5.638;2022-09-02T11:25:16;23.20;92.50
51783;DHT22;37845;53.196;5.638;2022-09-02T11:27:47;23.20;92.20
51783;DHT22;37845;53.196;5.638;2022-09-02T11:35:13;23.20;91.50
51783;DHT22;37845;53.196;5.638;2022-09-02T11:37:51;23.30;91.80
51783;DHT22;37845;53.196;5.638;2022-09-02T11:53:39;23.70;90.70
51783;DHT22;37845;53.196;5.638;2022-09-02T11:56:18;23.80;90.90
51783;DHT22;37845;53.196;5.638;2022-09-02T11:58:45;23.90;90.40
51783;DHT22;37845;53.196;5.638;2022-09-02T12:03:43;24.00;90.40
51783;DHT22;37845;53.196;5.638;2022-09-02T12:06:19;24.00;89.20
51783;DHT22;37845;53.196;5.638;2022-09-02T12:13:57;24.10;89.20
51783;DHT22;37845;53.196;5.638;2022-09-02T12:16:33;24.20;90.10
51783;DHT22;37845;53.196;5.638;2022-09-02T12:21:31;24.20;87.50
51783;DHT22;37845;53.196;5.638;2022-09-02T12:26:29;24.20;87.70
51783;DHT22;37845;53.196;5.638;2022-09-02T12:31:46;24.20;87.40
51783;DHT22;37845;53.196;5.638;2022-09-02T12:36:51;24.10;87.50
51783;DHT22;37845;53.196;5.638;2022-09-02T12:41:45;24.50;86.40
51783;DHT22;37845;53.196;5.638;2022-09-02T12:44:24;24.60;86.70
51783;DHT22;37845;53.196;5.638;2022-09-02T12:46:57;24.70;86.10
51783;DHT22;37845;53.196;5.638;2022-09-02T12:54:30;24.70;86.20
51783;DHT22;37845;53.196;5.638;2022-09-02T12:56:59;24.70;86.30
51783;DHT22;37845;53.196;5.638;2022-09-02T12:59:29;24.80;86.20
51783;DHT22;37845;53.196;5.638;2022-09-02T13:04:54;24.80;84.70
51783;DHT22;37845;53.196;5.638;2022-09-02T13:15:24;25.00;84.00
51783;DHT22;37845;53.196;5.638;2022-09-02T13:25:45;25.00;83.60
51783;DHT22;37845;53.196;5.638;2022-09-02T13:34:12;25.00;82.30
51783;DHT22;37845;53.196;5.638;2022-09-02T13:36:47;25.10;82.80
51783;DHT22;37845;53.196;5.638;2022-09-02T13:39:19;25.10;83.20
51783;DHT22;37845;53.196;5.638;2022-09-02T13:41:45;25.10;82.10
51783;DHT22;37845;53.196;5.638;2022-09-02T13:44:21;25.10;83.70
51783;DHT22;37845;53.196;5.638;2022-09-02T13:46:49;25.20;82.40
51783;DHT22;37845;53.196;5.638;2022-09-02T13:49:50;25.20;82.40
51783;DHT22;37845;53.196;5.638;2022-09-02T13:52:11;25.30;81.50
51783;DHT22;37845;53.196;5.638;2022-09-02T13:54:38;25.20;80.60
51783;DHT22;37845;53.196;5.638;2022-09-02T13:57:09;25.20;81.50
51783;DHT22;37845;53.196;5.638;2022-09-02T13:59:39;25.20;81.30
51783;DHT22;37845;53.196;5.638;2022-09-02T14:02:25;25.30;80.60
51783;DHT22;37845;53.196;5.638;2022-09-02T14:04:58;25.30;80.10
51783;DHT22;37845;53.196;5.638;2022-09-02T14:07:34;25.30;81.00
51783;DHT22;37845;53.196;5.638;2022-09-02T14:10:02;25.40;81.10
51783;DHT22;37845;53.196;5.638;2022-09-02T14:12:30;25.40;80.70
51783;DHT22;37845;53.196;5.638;2022-09-02T14:14:56;25.40;80.40
51783;DHT22;37845;53.196;5.638;2022-09-02T14:17:25;25.40;79.60
51783;DHT22;37845;53.196;5.638;2022-09-02T14:19:54;25.40;78.90
51783;DHT22;37845;53.196;5.638;2022-09-02T14:22:32;25.40;78.80
51783;DHT22;37845;53.196;5.638;2022-09-02T14:25:06;25.40;80.20
51783;DHT22;37845;53.196;5.638;2022-09-02T14:27:32;25.50;78.50
51783;DHT22;37845;53.196;5.638;2022-09-02T14:29:58;25.40;78.30
51783;DHT22;37845;53.196;5.638;2022-09-02T14:32:24;25.40;78.40
51783;DHT22;37845;53.196;5.638;2022-09-02T14:37:46;25.50;79.40
51783;DHT22;37845;53.196;5.638;2022-09-02T14:40:13;25.50;78.10
51783;DHT22;37845;53.196;5.638;2022-09-02T14:42:45;25.50;78.80
51783;DHT22;37845;53.196;5.638;2022-09-02T14:45:12;25.50;78.00
51783;DHT22;37845;53.196;5.638;2022-09-02T14:47:38;25.50;76.40
51783;DHT22;37845;53.196;5.638;2022-09-02T14:50:04;25.50;77.90
51783;DHT22;37845;53.196;5.638;2022-09-02T14:52:33;25.50;76.40
51783;DHT22;37845;53.196;5.638;2022-09-02T14:55:00;25.50;77.90
51783;DHT22;37845;53.196;5.638;2022-09-02T14:57:28;25.50;78.00
51783;DHT22;37845;53.196;5.638;2022-09-02T14:59:59;25.50;77.20
51783;DHT22;37845;53.196;5.638;2022-09-02T15:04:51;25.40;77.30
51783;DHT22;37845;53.196;5.638;2022-09-02T15:07:17;25.40;76.10
51783;DHT22;37845;53.196;5.638;2022-09-02T15:09:43;25.40;76.80
51783;DHT22;37845;53.196;5.638;2022-09-02T15:12:13;25.40;77.00
51783;DHT22;37845;53.196;5.638;2022-09-02T15:14:39;25.40;77.50
51783;DHT22;37845;53.196;5.638;2022-09-02T15:17:06;25.40;77.30
51783;DHT22;37845;53.196;5.638;2022-09-02T15:19:32;25.40;76.30
51783;DHT22;37845;53.196;5.638;2022-09-02T15:21:58;25.40;77.10
51783;DHT22;37845;53.196;5.638;2022-09-02T15:24:23;25.40;76.30
51783;DHT22;37845;53.196;5.638;2022-09-02T15:26:49;25.40;76.10
51783;DHT22;37845;53.196;5.638;2022-09-02T15:29:14;25.40;76.10
51783;DHT22;37845;53.196;5.638;2022-09-02T15:31:40;25.40;75.90
51783;DHT22;37845;53.196;5.638;2022-09-02T15:34:06;25.40;76.20
51783;DHT22;37845;53.196;5.638;2022-09-02T15:36:32;25.50;77.00
51783;DHT22;37845;53.196;5.638;2022-09-02T15:38:57;25.40;77.40
51783;DHT22;37845;53.196;5.638;2022-09-02T15:41:27;25.50;76.80
51783;DHT22;37845;53.196;5.638;2022-09-02T15:43:56;25.50;75.60
51783;DHT22;37845;53.196;5.638;2022-09-02T15:46:23;25.60;75.20
51783;DHT22;37845;53.196;5.638;2022-09-02T15:48:49;25.60;75.60
51783;DHT22;37845;53.196;5.638;2022-09-02T15:51:15;25.50;74.60
51783;DHT22;37845;53.196;5.638;2022-09-02T15:53:41;25.50;74.80
51783;DHT22;37845;53.196;5.638;2022-09-02T15:56:14;25.50;74.10
51783;DHT22;37845;53.196;5.638;2022-09-02T15:58:39;25.60;74.50
51783;DHT22;37845;53.196;5.638;2022-09-02T16:01:05;25.60;74.80
51783;DHT22;37845;53.196;5.638;2022-09-02T16:03:31;25.60;74.90
51783;DHT22;37845;53.196;5.638;2022-09-02T16:06:03;25.60;73.60
51783;DHT22;37845;53.196;5.638;2022-09-02T16:08:29;25.70;74.30
51783;DHT22;37845;53.196;5.638;2022-09-02T16:10:55;25.70;74.40
51783;DHT22;37845;53.196;5.638;2022-09-02T16:13:20;25.70;73.60
51783;DHT22;37845;53.196;5.638;2022-09-02T16:15:46;25.70;74.20
51783;DHT22;37845;53.196;5.638;2022-09-02T16:18:12;25.60;74.30
51783;DHT22;37845;53.196;5.638;2022-09-02T16:20:38;25.60;73.90
51783;DHT22;37845;53.196;5.638;2022-09-02T16:23:03;25.70;74.20
51783;DHT22;37845;53.196;5.638;2022-09-02T16:25:29;25.70;74.30
51783;DHT22;37845;53.196;5.638;2022-09-02T16:27:54;25.70;73.80
51783;DHT22;37845;53.196;5.638;2022-09-02T16:30:21;25.60;74.00
51783;DHT22;37845;53.196;5.638;2022-09-02T16:32:49;25.70;74.40
51783;DHT22;37845;53.196;5.638;2022-09-02T16:35:15;25.60;74.10
51783;DHT22;37845;53.196;5.638;2022-09-02T16:37:41;25.60;73.90
51783;DHT22;37845;53.196;5.638;2022-09-02T16:40:07;25.60;73.80
51783;DHT22;37845;53.196;5.638;2022-09-02T16:42:33;25.60;74.80
51783;DHT22;37845;53.196;5.638;2022-09-02T16:44:58;25.60;74.70
51783;DHT22;37845;53.196;5.638;2022-09-02T16:47:24;25.60;74.20
51783;DHT22;37845;53.196;5.638;2022-09-02T16:49:49;25.50;74.90
51783;DHT22;37845;53.196;5.638;2022-09-02T16:52:15;25.40;74.70
51783;DHT22;37845;53.196;5.638;2022-09-02T16:54:40;25.30;74.20
51783;DHT22;37845;53.196;5.638;2022-09-02T16:57:07;25.30;73.90
51783;DHT22;37845;53.196;5.638;2022-09-02T16:59:33;25.20;75.10
51783;DHT22;37845;53.196;5.638;2022-09-02T17:01:59;25.10;73.80
51783;DHT22;37845;53.196;5.638;2022-09-02T17:04:24;25.00;74.40
51783;DHT22;37845;53.196;5.638;2022-09-02T17:06:50;25.00;73.20
51783;DHT22;37845;53.196;5.638;2022-09-02T17:09:16;24.80;73.90
51783;DHT22;37845;53.196;5.638;2022-09-02T17:11:41;24.70;74.10
51783;DHT22;37845;53.196;5.638;2022-09-02T17:14:10;24.70;74.30
51783;DHT22;37845;53.196;5.638;2022-09-02T17:16:38;24.60;75.20
51783;DHT22;37845;53.196;5.638;2022-09-02T17:19:04;24.50;75.50
51783;DHT22;37845;53.196;5.638;2022-09-02T17:24:03;24.40;76.40
51783;DHT22;37845;53.196;5.638;2022-09-02T17:26:33;24.40;76.70
51783;DHT22;37845;53.196;5.638;2022-09-02T17:28:59;24.30;76.90
51783;DHT22;37845;53.196;5.638;2022-09-02T17:31:26;24.20;77.30
51783;DHT22;37845;53.196;5.638;2022-09-02T17:33:53;24.10;77.40
51783;DHT22;37845;53.196;5.638;2022-09-02T17:36:20;24.10;77.70
51783;DHT22;37845;53.196;5.638;2022-09-02T17:38:46;24.00;77.70
51783;DHT22;37845;53.196;5.638;2022-09-02T17:41:12;23.90;77.70
51783;DHT22;37845;53.196;5.638;2022-09-02T17:43:56;23.80;78.40
51783;DHT22;37845;53.196;5.638;2022-09-02T17:46:21;23.70;78.70
51783;DHT22;37845;53.196;5.638;2022-09-02T17:48:47;23.70;78.60